Red Hill, South Carolina
Current Conditions -  °F | °C
As of 6:35 PM on Monday 22 Dec 2014 (Local Time) from KCDN Reporting Station
Haze Haze  
Wind Chill: 36°   Ceiling: 400
Heat Index: 41°   Visibility: 5mi
Dew Point: 39°   Wind: 7mph
Humidity: 93%   Direction: 30°NNE
Pressure: 30.04"   Gusts: NA
Location:  34.2974°N, 80.6089°W
Report Text: KCDN 222335Z AUTO 03006KT 5SM BR OVC004 05/04 A3004 RMK AO2 TSNO
Loading
Personal Weather Stations






























Interactive Weather Map New forecast layout! Learn more

10-Day Weather Forecast

Advertisements
Track Severe Weather on mobile